aviador You're here:

SCAT Decoded Metar

DESIERTO ATACAMA in CHILE
Report Time2018-07-20 06:00:00
UTC Time2018-07-20 06:39:28
Flight Rules vfr VFR
Wind090° at 05 kt
W.Decomp.*RWY 17: 1.0 kt HW 4.9 kt LCW
W.Rank090° ranks 28
Current wind is above 090° avg. (4.5)
Visibility9999 m
Phenomena:N/A
Clouds:N/A
Expected CloudBase > 1,200 ft AGL from Temp-Dew spread
CeilingNone
Temp04°C (ISA -10)
Dew Point01°C (81% RH)
AAT0.4°C
QNH1024 hPa
Density Alt-781 ft
Elevation669 ft
Report Wrong Elevation
Raw Report
METAR SCAT 200600Z AUTO 09005KT 9999 // NCD 04/01 Q1024=

Extra information for SCAT:More info

Metar Taf Metar & Taf Last 4 Metars F.Rules Stats Wind Profile Meteogram Temp Stats Airport Information Weather charts Add Link Nearby VenuesMetar ALERT Operation Metar Decoded Social comments